DLH39SY EDDV-LFMP
Flight info
| Callsign | DLH39SY |
|---|---|
| Flight time | 1h 59m |
| Altitude | 35000 |
| Route | NORTA1Y NORTA P605 ELNAT Z99 MASEK DCT KRH T715 PABLA Y163 HERBI Y164 OLBEN DCT ONNOF DCT BELUS DCT LSE UY305 ESIDA DCT FJR FJR3P |
| Aircraft | B739/M-SDE2E3FGHIRWXY/LB1 |
Departure
| Time | 2026-05-05 12:06 |
|---|---|
| Airport | Hannover Airport (EDDV) |
Arrival
| Time | 2026-05-05 14:05 |
|---|---|
| Airport | Perpignan-Rivesaltes (Llabanère) Airport (LFMP) |
| Time | Latitude | Longitude | Altitude | Speed | Heading |
|---|---|---|---|---|---|
| 2026-05-05 11:31 | 52.45830 | 9.69306 | 177 ft | 0 kts | 51° |
| 2026-05-05 11:51 | 52.45825 | 9.69296 | 177 ft | 2 kts | 51° |
| 2026-05-05 11:51 | 52.45818 | 9.69281 | 177 ft | 1 kts | 51° |
| 2026-05-05 11:51 | 52.45811 | 9.69266 | 177 ft | 2 kts | 51° |
| 2026-05-05 11:52 | 52.45802 | 9.69249 | 177 ft | 2 kts | 44° |
| 2026-05-05 11:52 | 52.45790 | 9.69237 | 177 ft | 2 kts | 359° |
| 2026-05-05 11:52 | 52.45785 | 9.69236 | 177 ft | 2 kts | 326° |
| 2026-05-05 11:52 | 52.45789 | 9.69231 | 177 ft | 0 kts | 323° |
| 2026-05-05 11:55 | 52.45805 | 9.69213 | 177 ft | 6 kts | 323° |
| 2026-05-05 11:55 | 52.45852 | 9.69151 | 176 ft | 12 kts | 323° |
| 2026-05-05 11:55 | 52.45932 | 9.69053 | 177 ft | 16 kts | 323° |
| 2026-05-05 11:56 | 52.46033 | 9.68929 | 176 ft | 19 kts | 322° |
| 2026-05-05 11:56 | 52.46139 | 9.68794 | 178 ft | 20 kts | 321° |
| 2026-05-05 11:56 | 52.46248 | 9.68657 | 179 ft | 20 kts | 323° |
| 2026-05-05 11:56 | 52.46361 | 9.68515 | 180 ft | 21 kts | 322° |
| 2026-05-05 11:57 | 52.46481 | 9.68348 | 178 ft | 24 kts | 307° |
| 2026-05-05 11:57 | 52.46522 | 9.68076 | 177 ft | 27 kts | 269° |
| 2026-05-05 11:57 | 52.46531 | 9.67774 | 183 ft | 26 kts | 272° |
| 2026-05-05 11:57 | 52.46539 | 9.67466 | 182 ft | 28 kts | 272° |
| 2026-05-05 11:58 | 52.46548 | 9.67139 | 182 ft | 30 kts | 272° |
| 2026-05-05 11:58 | 52.46559 | 9.66782 | 179 ft | 33 kts | 272° |
| 2026-05-05 11:58 | 52.46568 | 9.66394 | 178 ft | 35 kts | 272° |
| 2026-05-05 11:58 | 52.46579 | 9.65999 | 181 ft | 35 kts | 272° |
| 2026-05-05 11:59 | 52.46589 | 9.65619 | 183 ft | 31 kts | 272° |
| 2026-05-05 11:59 | 52.46607 | 9.65362 | 182 ft | 18 kts | 294° |
| 2026-05-05 11:59 | 52.46707 | 9.65279 | 180 ft | 11 kts | 3° |
| 2026-05-05 11:59 | 52.46726 | 9.65280 | 181 ft | 0 kts | 1° |
| 2026-05-05 12:04 | 52.46738 | 9.65281 | 181 ft | 6 kts | 2° |
| 2026-05-05 12:04 | 52.46800 | 9.65322 | 181 ft | 15 kts | 40° |
| 2026-05-05 12:04 | 52.46820 | 9.65455 | 178 ft | 0 kts | 93° |
| 2026-05-05 12:05 | 52.46819 | 9.65492 | 177 ft | 20 kts | 92° |
| 2026-05-05 12:05 | 52.46801 | 9.66148 | 182 ft | 93 kts | 92° |
| 2026-05-05 12:05 | 52.46763 | 9.67542 | 176 ft | 153 kts | 92° |
| 2026-05-05 12:05 | 52.46711 | 9.69532 | 315 ft | 190 kts | 90° |
| 2026-05-05 12:06 | 52.46632 | 9.71792 | 845 ft | 207 kts | 90° |
| 2026-05-05 12:06 | 52.46579 | 9.74138 | 1346 ft | 201 kts | 90° |
| 2026-05-05 12:06 | 52.46518 | 9.76402 | 1660 ft | 198 kts | 92° |
| 2026-05-05 12:06 | 52.46440 | 9.78689 | 1965 ft | 206 kts | 91° |
| 2026-05-05 12:07 | 52.46371 | 9.81088 | 2325 ft | 217 kts | 91° |
| 2026-05-05 12:07 | 52.46306 | 9.83610 | 2692 ft | 225 kts | 91° |
| 2026-05-05 12:07 | 52.46180 | 9.86195 | 3050 ft | 231 kts | 105° |
| 2026-05-05 12:07 | 52.45350 | 9.88471 | 3118 ft | 240 kts | 139° |
| 2026-05-05 12:08 | 52.44036 | 9.90174 | 3000 ft | 243 kts | 142° |
| 2026-05-05 12:08 | 52.42684 | 9.91859 | 2845 ft | 244 kts | 148° |
| 2026-05-05 12:08 | 52.41107 | 9.92646 | 2671 ft | 243 kts | 181° |
| 2026-05-05 12:08 | 52.39431 | 9.92322 | 2515 ft | 241 kts | 189° |
| 2026-05-05 12:09 | 52.37796 | 9.91867 | 2434 ft | 237 kts | 189° |
| 2026-05-05 12:09 | 52.36150 | 9.91406 | 2399 ft | 245 kts | 189° |
| 2026-05-05 12:09 | 52.34407 | 9.90924 | 2614 ft | 262 kts | 189° |
| 2026-05-05 12:09 | 52.32605 | 9.90433 | 3292 ft | 261 kts | 190° |
| 2026-05-05 12:10 | 52.30816 | 9.89951 | 4034 ft | 259 kts | 191° |
| 2026-05-05 12:10 | 52.29031 | 9.89474 | 4680 ft | 261 kts | 191° |
| 2026-05-05 12:10 | 52.27231 | 9.88995 | 5292 ft | 263 kts | 191° |
| 2026-05-05 12:10 | 52.25413 | 9.88512 | 5910 ft | 266 kts | 191° |
| 2026-05-05 12:11 | 52.23567 | 9.88078 | 6515 ft | 268 kts | 189° |
| 2026-05-05 12:11 | 52.21707 | 9.87714 | 7109 ft | 270 kts | 188° |
| 2026-05-05 12:11 | 52.19836 | 9.87361 | 7692 ft | 272 kts | 188° |
| 2026-05-05 12:11 | 52.17953 | 9.87006 | 8272 ft | 274 kts | 188° |
| 2026-05-05 12:12 | 52.16044 | 9.86643 | 8875 ft | 276 kts | 188° |
| 2026-05-05 12:12 | 52.14132 | 9.86277 | 9441 ft | 278 kts | 188° |
| 2026-05-05 12:12 | 52.12231 | 9.85911 | 10002 ft | 279 kts | 188° |
| 2026-05-05 12:12 | 52.10257 | 9.85529 | 10231 ft | 294 kts | 188° |
| 2026-05-05 12:13 | 52.08166 | 9.85123 | 10377 ft | 311 kts | 188° |
| 2026-05-05 12:13 | 52.05954 | 9.84694 | 10504 ft | 328 kts | 188° |
| 2026-05-05 12:13 | 52.03629 | 9.84243 | 10628 ft | 344 kts | 188° |
| 2026-05-05 12:13 | 52.01203 | 9.83774 | 10737 ft | 359 kts | 188° |
| 2026-05-05 12:14 | 51.98676 | 9.83286 | 10854 ft | 373 kts | 188° |
| 2026-05-05 12:14 | 51.96062 | 9.82782 | 11061 ft | 382 kts | 188° |
| 2026-05-05 12:14 | 51.93406 | 9.82271 | 11490 ft | 385 kts | 188° |
| 2026-05-05 12:14 | 51.90742 | 9.81758 | 11965 ft | 386 kts | 188° |
| 2026-05-05 12:15 | 51.88065 | 9.81243 | 12425 ft | 388 kts | 188° |
| 2026-05-05 12:15 | 51.85374 | 9.80727 | 12855 ft | 390 kts | 188° |
| 2026-05-05 12:15 | 51.82668 | 9.80209 | 13270 ft | 392 kts | 188° |
| 2026-05-05 12:15 | 51.79947 | 9.79690 | 13721 ft | 395 kts | 188° |
| 2026-05-05 12:16 | 51.77212 | 9.79171 | 14086 ft | 398 kts | 188° |
| 2026-05-05 12:16 | 51.74455 | 9.78643 | 14433 ft | 400 kts | 188° |
| 2026-05-05 12:16 | 51.71679 | 9.78112 | 14840 ft | 403 kts | 188° |
| 2026-05-05 12:16 | 51.68889 | 9.77580 | 15201 ft | 405 kts | 188° |
| 2026-05-05 12:17 | 51.66116 | 9.77053 | 15549 ft | 407 kts | 188° |
| 2026-05-05 12:17 | 51.63290 | 9.76517 | 15901 ft | 409 kts | 188° |
| 2026-05-05 12:17 | 51.60454 | 9.75976 | 16273 ft | 410 kts | 188° |
| 2026-05-05 12:17 | 51.57609 | 9.75430 | 16599 ft | 412 kts | 188° |
| 2026-05-05 12:18 | 51.54758 | 9.74883 | 16907 ft | 415 kts | 188° |
| 2026-05-05 12:18 | 51.51877 | 9.74331 | 17222 ft | 417 kts | 188° |
| 2026-05-05 12:18 | 51.48988 | 9.73779 | 17528 ft | 419 kts | 188° |
| 2026-05-05 12:18 | 51.46086 | 9.73231 | 17847 ft | 421 kts | 187° |
| 2026-05-05 12:19 | 51.43167 | 9.72735 | 18138 ft | 423 kts | 187° |
| 2026-05-05 12:19 | 51.40221 | 9.72267 | 18400 ft | 425 kts | 187° |
| 2026-05-05 12:19 | 51.37291 | 9.71808 | 18767 ft | 423 kts | 187° |
| 2026-05-05 12:19 | 51.34351 | 9.71344 | 19035 ft | 425 kts | 187° |
| 2026-05-05 12:20 | 51.31392 | 9.70871 | 19258 ft | 427 kts | 187° |
| 2026-05-05 12:20 | 51.28466 | 9.70400 | 19496 ft | 429 kts | 187° |
| 2026-05-05 12:20 | 51.25487 | 9.69919 | 19769 ft | 430 kts | 187° |
| 2026-05-05 12:20 | 51.22501 | 9.69438 | 20033 ft | 432 kts | 187° |
| 2026-05-05 12:21 | 51.19506 | 9.68950 | 20285 ft | 433 kts | 187° |
| 2026-05-05 12:21 | 51.16512 | 9.68387 | 20526 ft | 434 kts | 188° |
| 2026-05-05 12:21 | 51.13517 | 9.67787 | 20881 ft | 433 kts | 188° |
| 2026-05-05 12:21 | 51.10524 | 9.67193 | 21106 ft | 434 kts | 188° |
| 2026-05-05 12:22 | 51.07515 | 9.66606 | 21269 ft | 437 kts | 188° |
| 2026-05-05 12:22 | 51.04488 | 9.66011 | 21496 ft | 438 kts | 188° |
| 2026-05-05 12:22 | 51.01456 | 9.65412 | 21720 ft | 439 kts | 188° |
| 2026-05-05 12:22 | 50.98421 | 9.64811 | 21923 ft | 440 kts | 188° |
| 2026-05-05 12:23 | 50.95380 | 9.64210 | 22131 ft | 442 kts | 188° |
| 2026-05-05 12:23 | 50.92320 | 9.63606 | 22317 ft | 443 kts | 188° |
| 2026-05-05 12:23 | 50.89250 | 9.63002 | 22535 ft | 444 kts | 188° |
| 2026-05-05 12:23 | 50.86180 | 9.62400 | 22726 ft | 445 kts | 188° |
| 2026-05-05 12:24 | 50.83102 | 9.61796 | 22907 ft | 447 kts | 188° |
| 2026-05-05 12:24 | 50.80006 | 9.61189 | 23091 ft | 448 kts | 188° |
| 2026-05-05 12:24 | 50.76950 | 9.60591 | 23268 ft | 449 kts | 188° |
| 2026-05-05 12:24 | 50.73846 | 9.59937 | 23425 ft | 450 kts | 191° |
| 2026-05-05 12:25 | 50.70815 | 9.58723 | 23568 ft | 450 kts | 200° |
| 2026-05-05 12:25 | 50.67895 | 9.56923 | 23742 ft | 450 kts | 202° |
| 2026-05-05 12:25 | 50.64987 | 9.55102 | 23914 ft | 451 kts | 201° |
| 2026-05-05 12:25 | 50.62064 | 9.53290 | 24063 ft | 451 kts | 201° |
| 2026-05-05 12:26 | 50.60117 | 9.52094 | 24175 ft | 452 kts | 201° |
| 2026-05-05 12:26 | 50.57178 | 9.50303 | 24336 ft | 452 kts | 201° |
| 2026-05-05 12:26 | 50.54237 | 9.48522 | 24495 ft | 453 kts | 201° |
| 2026-05-05 12:26 | 50.51291 | 9.46748 | 24647 ft | 453 kts | 201° |
| 2026-05-05 12:27 | 50.47385 | 9.44402 | 24843 ft | 454 kts | 201° |
| 2026-05-05 12:27 | 50.45396 | 9.43210 | 24958 ft | 454 kts | 201° |
| 2026-05-05 12:27 | 50.42440 | 9.41441 | 25197 ft | 452 kts | 201° |
| 2026-05-05 12:27 | 50.39513 | 9.39690 | 25463 ft | 450 kts | 201° |
| 2026-05-05 12:28 | 50.36597 | 9.37949 | 25725 ft | 448 kts | 201° |
| 2026-05-05 12:28 | 50.33683 | 9.36210 | 25957 ft | 447 kts | 201° |
| 2026-05-05 12:28 | 50.30782 | 9.34481 | 26191 ft | 445 kts | 201° |
| 2026-05-05 12:28 | 50.27928 | 9.32783 | 26444 ft | 444 kts | 201° |
| 2026-05-05 12:29 | 50.25045 | 9.31069 | 26680 ft | 443 kts | 201° |
| 2026-05-05 12:29 | 50.22163 | 9.29357 | 26886 ft | 442 kts | 201° |
| 2026-05-05 12:29 | 50.19292 | 9.27655 | 27124 ft | 441 kts | 201° |
| 2026-05-05 12:29 | 50.16426 | 9.25957 | 27395 ft | 439 kts | 201° |
| 2026-05-05 12:30 | 50.13568 | 9.24267 | 27667 ft | 437 kts | 201° |
| 2026-05-05 12:30 | 50.10726 | 9.22588 | 27929 ft | 436 kts | 201° |
| 2026-05-05 12:30 | 50.07895 | 9.20918 | 28176 ft | 435 kts | 201° |
| 2026-05-05 12:30 | 50.05069 | 9.19254 | 28422 ft | 434 kts | 201° |
| 2026-05-05 12:31 | 50.02255 | 9.17598 | 28705 ft | 431 kts | 201° |
| 2026-05-05 12:31 | 49.99485 | 9.15971 | 28977 ft | 430 kts | 201° |
| 2026-05-05 12:31 | 49.96695 | 9.14333 | 29234 ft | 429 kts | 201° |
| 2026-05-05 12:31 | 49.93903 | 9.12696 | 29488 ft | 427 kts | 201° |
| 2026-05-05 12:32 | 49.91123 | 9.11068 | 29761 ft | 426 kts | 201° |
| 2026-05-05 12:32 | 49.88351 | 9.09447 | 29975 ft | 425 kts | 201° |
| 2026-05-05 12:32 | 49.85576 | 9.07827 | 30115 ft | 426 kts | 201° |
| 2026-05-05 12:32 | 49.82803 | 9.06209 | 30284 ft | 426 kts | 200° |
| 2026-05-05 12:33 | 49.80034 | 9.04595 | 30535 ft | 423 kts | 200° |
| 2026-05-05 12:33 | 49.77288 | 9.02997 | 30796 ft | 421 kts | 200° |
| 2026-05-05 12:33 | 49.74550 | 9.01406 | 31003 ft | 420 kts | 200° |
| 2026-05-05 12:33 | 49.71813 | 8.99817 | 31172 ft | 419 kts | 200° |
| 2026-05-05 12:34 | 49.69079 | 8.98236 | 31367 ft | 418 kts | 200° |
| 2026-05-05 12:34 | 49.66356 | 8.96661 | 31597 ft | 416 kts | 200° |
| 2026-05-05 12:34 | 49.63684 | 8.95114 | 31836 ft | 414 kts | 200° |
| 2026-05-05 12:34 | 49.60980 | 8.93549 | 32001 ft | 414 kts | 200° |
| 2026-05-05 12:35 | 49.58284 | 8.91992 | 32134 ft | 415 kts | 200° |
| 2026-05-05 12:35 | 49.55578 | 8.90432 | 32340 ft | 413 kts | 200° |
| 2026-05-05 12:35 | 49.52896 | 8.88887 | 32610 ft | 411 kts | 200° |
| 2026-05-05 12:35 | 49.50224 | 8.87350 | 32840 ft | 409 kts | 200° |
| 2026-05-05 12:36 | 49.47563 | 8.85822 | 33012 ft | 408 kts | 200° |
| 2026-05-05 12:36 | 49.44904 | 8.84296 | 33145 ft | 408 kts | 200° |
| 2026-05-05 12:36 | 49.42241 | 8.82771 | 33346 ft | 407 kts | 199° |
| 2026-05-05 12:36 | 49.39588 | 8.81252 | 33543 ft | 406 kts | 199° |
| 2026-05-05 12:37 | 49.34267 | 8.78212 | 33712 ft | 409 kts | 199° |
| 2026-05-05 12:37 | 49.31611 | 8.76696 | 33891 ft | 407 kts | 199° |
| 2026-05-05 12:37 | 49.28953 | 8.75182 | 34023 ft | 407 kts | 199° |
| 2026-05-05 12:38 | 49.23659 | 8.72171 | 34161 ft | 408 kts | 199° |
| 2026-05-05 12:38 | 49.18329 | 8.69146 | 34332 ft | 409 kts | 199° |
| 2026-05-05 12:39 | 49.12961 | 8.66106 | 34391 ft | 413 kts | 199° |
| 2026-05-05 12:39 | 49.07572 | 8.63061 | 34600 ft | 413 kts | 199° |
| 2026-05-05 12:40 | 49.02193 | 8.60029 | 34809 ft | 412 kts | 199° |
| 2026-05-05 12:40 | 48.97079 | 8.56025 | 34851 ft | 418 kts | 214° |
| 2026-05-05 12:41 | 48.92443 | 8.50628 | 34863 ft | 422 kts | 214° |
| 2026-05-05 12:41 | 48.87774 | 8.45265 | 34865 ft | 424 kts | 214° |
| 2026-05-05 12:42 | 48.83035 | 8.39885 | 34867 ft | 426 kts | 214° |
| 2026-05-05 12:42 | 48.77997 | 8.35241 | 34876 ft | 422 kts | 201° |
| 2026-05-05 12:43 | 48.72391 | 8.32739 | 34870 ft | 420 kts | 192° |
| 2026-05-05 12:43 | 48.66700 | 8.30746 | 34861 ft | 419 kts | 192° |
| 2026-05-05 12:44 | 48.61040 | 8.28718 | 34873 ft | 418 kts | 192° |
| 2026-05-05 12:44 | 48.55374 | 8.26667 | 34864 ft | 418 kts | 192° |
| 2026-05-05 12:45 | 48.49761 | 8.24639 | 34870 ft | 417 kts | 192° |
| 2026-05-05 12:45 | 48.44078 | 8.22576 | 34877 ft | 417 kts | 193° |
| 2026-05-05 12:46 | 48.38481 | 8.20536 | 34876 ft | 417 kts | 193° |
| 2026-05-05 12:46 | 48.32824 | 8.18479 | 34861 ft | 418 kts | 193° |
| 2026-05-05 12:47 | 48.27166 | 8.16429 | 34871 ft | 419 kts | 193° |
| 2026-05-05 12:47 | 48.21571 | 8.13960 | 34876 ft | 420 kts | 199° |
| 2026-05-05 12:48 | 48.16109 | 8.10801 | 34889 ft | 422 kts | 200° |
| 2026-05-05 12:48 | 48.10608 | 8.07600 | 34890 ft | 424 kts | 200° |
| 2026-05-05 12:49 | 48.05077 | 8.04439 | 34888 ft | 426 kts | 200° |
| 2026-05-05 12:49 | 47.99555 | 8.01318 | 34877 ft | 427 kts | 200° |
| 2026-05-05 12:50 | 47.93993 | 7.98189 | 34883 ft | 427 kts | 200° |
| 2026-05-05 12:50 | 47.88432 | 7.95068 | 34891 ft | 427 kts | 200° |
| 2026-05-05 12:51 | 47.82864 | 7.91949 | 34884 ft | 427 kts | 200° |
| 2026-05-05 12:51 | 47.77310 | 7.88845 | 34878 ft | 426 kts | 200° |
| 2026-05-05 12:52 | 47.71760 | 7.85749 | 34873 ft | 425 kts | 200° |
| 2026-05-05 12:52 | 47.66216 | 7.82665 | 34868 ft | 425 kts | 200° |
| 2026-05-05 12:53 | 47.60685 | 7.79594 | 34864 ft | 424 kts | 200° |
| 2026-05-05 12:53 | 47.55192 | 7.76551 | 34864 ft | 423 kts | 200° |
| 2026-05-05 12:54 | 47.46930 | 7.71988 | 34864 ft | 422 kts | 200° |
| 2026-05-05 12:55 | 47.41423 | 7.68954 | 34869 ft | 422 kts | 200° |
| 2026-05-05 12:55 | 47.35922 | 7.65929 | 34869 ft | 421 kts | 200° |
| 2026-05-05 12:56 | 47.30601 | 7.62531 | 34890 ft | 420 kts | 211° |
| 2026-05-05 12:56 | 47.25988 | 7.57246 | 34909 ft | 421 kts | 221° |
| 2026-05-05 12:57 | 47.21633 | 7.51462 | 34882 ft | 422 kts | 221° |
| 2026-05-05 12:57 | 47.17245 | 7.45686 | 34884 ft | 423 kts | 220° |
| 2026-05-05 12:58 | 47.12835 | 7.39922 | 34892 ft | 425 kts | 220° |
| 2026-05-05 12:58 | 47.08410 | 7.34161 | 34891 ft | 425 kts | 220° |
| 2026-05-05 12:59 | 47.03972 | 7.28399 | 34884 ft | 426 kts | 220° |
| 2026-05-05 12:59 | 46.99533 | 7.22649 | 34887 ft | 426 kts | 220° |
| 2026-05-05 13:00 | 46.92912 | 7.14095 | 34914 ft | 424 kts | 221° |
| 2026-05-05 13:01 | 46.84083 | 7.02735 | 34905 ft | 421 kts | 221° |
| 2026-05-05 13:01 | 46.79696 | 6.97109 | 34909 ft | 419 kts | 221° |
| 2026-05-05 13:02 | 46.75313 | 6.91502 | 34941 ft | 417 kts | 220° |
| 2026-05-05 13:02 | 46.70983 | 6.85974 | 34921 ft | 416 kts | 220° |
| 2026-05-05 13:03 | 46.66632 | 6.80432 | 34907 ft | 415 kts | 220° |
| 2026-05-05 13:03 | 46.62287 | 6.74910 | 34906 ft | 413 kts | 220° |
| 2026-05-05 13:04 | 46.57952 | 6.69413 | 34914 ft | 413 kts | 220° |
| 2026-05-05 13:04 | 46.53639 | 6.63955 | 34912 ft | 413 kts | 220° |
| 2026-05-05 13:05 | 46.49293 | 6.58469 | 34913 ft | 414 kts | 220° |
| 2026-05-05 13:05 | 46.44929 | 6.52971 | 34916 ft | 415 kts | 220° |
| 2026-05-05 13:06 | 46.40559 | 6.47478 | 34912 ft | 416 kts | 220° |
| 2026-05-05 13:06 | 46.36184 | 6.41990 | 34952 ft | 416 kts | 220° |
| 2026-05-05 13:07 | 46.31827 | 6.36537 | 34930 ft | 417 kts | 220° |
| 2026-05-05 13:07 | 46.27437 | 6.31055 | 34917 ft | 417 kts | 220° |
| 2026-05-05 13:08 | 46.23006 | 6.25534 | 34916 ft | 419 kts | 220° |
| 2026-05-05 13:08 | 46.18615 | 6.20075 | 34916 ft | 418 kts | 220° |
| 2026-05-05 13:09 | 46.14209 | 6.14608 | 34902 ft | 417 kts | 220° |
| 2026-05-05 13:09 | 46.09813 | 6.09166 | 34907 ft | 416 kts | 220° |
| 2026-05-05 13:10 | 46.05424 | 6.03744 | 34920 ft | 414 kts | 220° |
| 2026-05-05 13:10 | 46.01048 | 5.98348 | 34901 ft | 413 kts | 221° |
| 2026-05-05 13:11 | 45.96689 | 5.92986 | 34938 ft | 412 kts | 220° |
| 2026-05-05 13:11 | 45.92288 | 5.87732 | 34911 ft | 411 kts | 219° |
| 2026-05-05 13:12 | 45.87816 | 5.82629 | 34906 ft | 410 kts | 219° |
| 2026-05-05 13:12 | 45.83356 | 5.77538 | 34908 ft | 410 kts | 219° |
| 2026-05-05 13:13 | 45.79653 | 5.73295 | 34916 ft | 410 kts | 219° |
| 2026-05-05 13:13 | 45.75198 | 5.68193 | 34911 ft | 410 kts | 219° |
| 2026-05-05 13:14 | 45.70738 | 5.63094 | 34920 ft | 410 kts | 219° |
| 2026-05-05 13:14 | 45.66142 | 5.58202 | 34893 ft | 414 kts | 211° |
| 2026-05-05 13:15 | 45.61121 | 5.54223 | 34911 ft | 412 kts | 211° |
| 2026-05-05 13:15 | 45.56108 | 5.50245 | 34901 ft | 411 kts | 211° |
| 2026-05-05 13:16 | 45.51155 | 5.46295 | 34910 ft | 410 kts | 211° |
| 2026-05-05 13:16 | 45.46170 | 5.42315 | 34904 ft | 411 kts | 211° |
| 2026-05-05 13:17 | 45.41188 | 5.38342 | 34937 ft | 411 kts | 211° |
| 2026-05-05 13:17 | 45.36183 | 5.34371 | 34908 ft | 411 kts | 211° |
| 2026-05-05 13:18 | 45.31192 | 5.30403 | 34910 ft | 409 kts | 211° |
| 2026-05-05 13:18 | 45.26220 | 5.26460 | 34891 ft | 408 kts | 211° |
| 2026-05-05 13:19 | 45.21309 | 5.22575 | 34898 ft | 405 kts | 211° |
| 2026-05-05 13:19 | 45.16391 | 5.18694 | 34908 ft | 403 kts | 211° |
| 2026-05-05 13:20 | 45.11458 | 5.14809 | 34904 ft | 402 kts | 211° |
| 2026-05-05 13:20 | 45.06609 | 5.10997 | 34901 ft | 401 kts | 212° |
| 2026-05-05 13:21 | 45.01746 | 5.07181 | 34899 ft | 399 kts | 212° |
| 2026-05-05 13:21 | 44.96896 | 5.03384 | 34882 ft | 398 kts | 211° |
| 2026-05-05 13:22 | 44.92057 | 4.99602 | 34884 ft | 397 kts | 211° |
| 2026-05-05 13:22 | 44.87224 | 4.95832 | 34875 ft | 396 kts | 212° |
| 2026-05-05 13:23 | 44.82398 | 4.92075 | 34901 ft | 396 kts | 212° |
| 2026-05-05 13:23 | 44.77568 | 4.88323 | 34887 ft | 397 kts | 212° |
| 2026-05-05 13:24 | 44.72759 | 4.84593 | 34900 ft | 397 kts | 212° |
| 2026-05-05 13:24 | 44.67916 | 4.80844 | 34896 ft | 398 kts | 212° |
| 2026-05-05 13:25 | 44.63066 | 4.77098 | 34915 ft | 398 kts | 211° |
| 2026-05-05 13:25 | 44.58195 | 4.73342 | 34905 ft | 399 kts | 211° |
| 2026-05-05 13:26 | 44.53326 | 4.69595 | 34911 ft | 399 kts | 211° |
| 2026-05-05 13:26 | 44.48485 | 4.65878 | 34909 ft | 398 kts | 212° |
| 2026-05-05 13:27 | 44.43621 | 4.62149 | 34915 ft | 398 kts | 212° |
| 2026-05-05 13:27 | 44.38758 | 4.58432 | 34913 ft | 397 kts | 212° |
| 2026-05-05 13:28 | 44.33915 | 4.54732 | 34920 ft | 397 kts | 211° |
| 2026-05-05 13:28 | 44.29067 | 4.51035 | 34912 ft | 396 kts | 211° |
| 2026-05-05 13:29 | 44.24227 | 4.47352 | 34912 ft | 396 kts | 211° |
| 2026-05-05 13:29 | 44.19378 | 4.43670 | 34913 ft | 396 kts | 211° |
| 2026-05-05 13:30 | 44.14537 | 4.40001 | 34910 ft | 397 kts | 211° |
| 2026-05-05 13:30 | 44.09725 | 4.36362 | 34908 ft | 395 kts | 212° |
| 2026-05-05 13:31 | 44.04893 | 4.32713 | 34907 ft | 395 kts | 212° |
| 2026-05-05 13:31 | 44.00060 | 4.29070 | 34908 ft | 394 kts | 212° |
| 2026-05-05 13:32 | 43.95245 | 4.25449 | 34907 ft | 393 kts | 212° |
| 2026-05-05 13:32 | 43.90449 | 4.21848 | 34899 ft | 391 kts | 212° |
| 2026-05-05 13:33 | 43.85662 | 4.18259 | 34930 ft | 390 kts | 212° |
| 2026-05-05 13:33 | 43.80906 | 4.14701 | 34921 ft | 390 kts | 212° |
| 2026-05-05 13:34 | 43.76192 | 4.11182 | 34890 ft | 379 kts | 212° |
| 2026-05-05 13:34 | 43.71606 | 4.07765 | 34901 ft | 371 kts | 212° |
| 2026-05-05 13:35 | 43.67082 | 4.04395 | 34917 ft | 370 kts | 212° |
| 2026-05-05 13:35 | 43.62524 | 4.01004 | 34924 ft | 374 kts | 212° |
| 2026-05-05 13:36 | 43.57935 | 3.97516 | 34910 ft | 376 kts | 218° |
| 2026-05-05 13:36 | 43.54136 | 3.92577 | 34426 ft | 380 kts | 226° |
| 2026-05-05 13:37 | 43.52287 | 3.90019 | 34002 ft | 374 kts | 225° |
| 2026-05-05 13:37 | 43.50445 | 3.87493 | 33331 ft | 373 kts | 225° |
| 2026-05-05 13:37 | 43.48595 | 3.84968 | 32524 ft | 375 kts | 225° |
| 2026-05-05 13:37 | 43.46760 | 3.82470 | 31761 ft | 376 kts | 225° |
| 2026-05-05 13:38 | 43.44895 | 3.79937 | 31065 ft | 376 kts | 225° |
| 2026-05-05 13:38 | 43.43030 | 3.77408 | 30338 ft | 376 kts | 225° |
| 2026-05-05 13:38 | 43.41164 | 3.74878 | 29541 ft | 376 kts | 225° |
| 2026-05-05 13:38 | 43.39301 | 3.72355 | 28710 ft | 376 kts | 225° |
| 2026-05-05 13:39 | 43.37436 | 3.69831 | 27897 ft | 376 kts | 225° |
| 2026-05-05 13:39 | 43.35573 | 3.67313 | 27092 ft | 376 kts | 225° |
| 2026-05-05 13:39 | 43.33707 | 3.64792 | 26321 ft | 376 kts | 225° |
| 2026-05-05 13:39 | 43.31842 | 3.62276 | 25572 ft | 376 kts | 225° |
| 2026-05-05 13:40 | 43.29975 | 3.59759 | 24836 ft | 376 kts | 225° |
| 2026-05-05 13:40 | 43.28109 | 3.57244 | 24130 ft | 376 kts | 225° |
| 2026-05-05 13:40 | 43.26236 | 3.54723 | 23425 ft | 377 kts | 225° |
| 2026-05-05 13:40 | 43.24365 | 3.52207 | 22604 ft | 377 kts | 225° |
| 2026-05-05 13:41 | 43.22491 | 3.49690 | 21801 ft | 378 kts | 225° |
| 2026-05-05 13:41 | 43.20607 | 3.47161 | 21020 ft | 378 kts | 225° |
| 2026-05-05 13:41 | 43.18721 | 3.44632 | 20259 ft | 379 kts | 224° |
| 2026-05-05 13:41 | 43.16836 | 3.42106 | 19509 ft | 380 kts | 224° |
| 2026-05-05 13:42 | 43.14944 | 3.39575 | 18790 ft | 380 kts | 224° |
| 2026-05-05 13:42 | 43.13060 | 3.37054 | 18052 ft | 375 kts | 224° |
| 2026-05-05 13:42 | 43.11216 | 3.34590 | 17241 ft | 367 kts | 224° |
| 2026-05-05 13:42 | 43.09401 | 3.32168 | 16452 ft | 361 kts | 224° |
| 2026-05-05 13:43 | 43.07617 | 3.29788 | 15687 ft | 355 kts | 224° |
| 2026-05-05 13:43 | 43.05855 | 3.27440 | 14939 ft | 351 kts | 224° |
| 2026-05-05 13:43 | 43.04118 | 3.25126 | 14202 ft | 346 kts | 224° |
| 2026-05-05 13:43 | 43.02403 | 3.22845 | 13472 ft | 343 kts | 224° |
| 2026-05-05 13:44 | 43.00699 | 3.20580 | 12679 ft | 340 kts | 224° |
| 2026-05-05 13:44 | 42.99007 | 3.18332 | 11908 ft | 338 kts | 224° |
| 2026-05-05 13:44 | 42.97346 | 3.16127 | 11153 ft | 335 kts | 224° |
| 2026-05-05 13:44 | 42.95681 | 3.13917 | 10422 ft | 333 kts | 224° |
| 2026-05-05 13:45 | 42.94027 | 3.11724 | 9690 ft | 330 kts | 224° |
| 2026-05-05 13:45 | 42.92381 | 3.09546 | 8908 ft | 328 kts | 224° |
| 2026-05-05 13:45 | 42.90743 | 3.07379 | 8134 ft | 326 kts | 224° |
| 2026-05-05 13:45 | 42.88937 | 3.05546 | 7364 ft | 326 kts | 203° |
| 2026-05-05 13:46 | 42.86714 | 3.05114 | 6650 ft | 327 kts | 173° |
| 2026-05-05 13:46 | 42.84613 | 3.06265 | 5901 ft | 331 kts | 144° |
| 2026-05-05 13:46 | 42.83121 | 3.08645 | 5186 ft | 332 kts | 126° |
| 2026-05-05 13:46 | 42.81542 | 3.10875 | 4378 ft | 326 kts | 152° |
| 2026-05-05 13:47 | 42.79411 | 3.11749 | 3660 ft | 319 kts | 176° |
| 2026-05-05 13:47 | 42.77201 | 3.11763 | 3006 ft | 314 kts | 181° |
| 2026-05-05 13:47 | 42.75096 | 3.11754 | 2777 ft | 297 kts | 180° |
| 2026-05-05 13:47 | 42.73098 | 3.11579 | 2611 ft | 279 kts | 186° |
| 2026-05-05 13:48 | 42.71235 | 3.11217 | 2503 ft | 262 kts | 188° |
| 2026-05-05 13:48 | 42.69499 | 3.10852 | 2471 ft | 243 kts | 188° |
| 2026-05-05 13:48 | 42.67883 | 3.10503 | 2462 ft | 229 kts | 188° |
| 2026-05-05 13:48 | 42.66356 | 3.10168 | 2477 ft | 216 kts | 188° |
| 2026-05-05 13:49 | 42.64900 | 3.09846 | 2487 ft | 207 kts | 188° |
| 2026-05-05 13:49 | 42.63505 | 3.09531 | 2515 ft | 201 kts | 188° |
| 2026-05-05 13:49 | 42.62129 | 3.09192 | 2502 ft | 202 kts | 195° |
| 2026-05-05 13:49 | 42.60952 | 3.08145 | 2488 ft | 208 kts | 227° |
| 2026-05-05 13:50 | 42.60103 | 3.06566 | 2474 ft | 206 kts | 231° |
| 2026-05-05 13:50 | 42.59532 | 3.04816 | 2468 ft | 204 kts | 258° |
| 2026-05-05 13:50 | 42.59347 | 3.02956 | 2465 ft | 195 kts | 258° |
| 2026-05-05 13:50 | 42.59145 | 3.01135 | 2509 ft | 200 kts | 260° |
| 2026-05-05 13:51 | 42.59006 | 2.99209 | 2522 ft | 210 kts | 267° |
| 2026-05-05 13:51 | 42.59415 | 2.97283 | 2512 ft | 219 kts | 303° |
| 2026-05-05 13:51 | 42.60579 | 2.95989 | 2462 ft | 217 kts | 340° |
| 2026-05-05 13:51 | 42.61984 | 2.95408 | 2469 ft | 207 kts | 345° |
| 2026-05-05 13:52 | 42.63341 | 2.94875 | 2429 ft | 203 kts | 345° |
| 2026-05-05 13:52 | 42.64716 | 2.94357 | 2144 ft | 201 kts | 345° |
| 2026-05-05 13:52 | 42.66034 | 2.93847 | 1873 ft | 196 kts | 342° |
| 2026-05-05 13:52 | 42.67232 | 2.93046 | 1652 ft | 184 kts | 329° |
| 2026-05-05 13:53 | 42.68305 | 2.92136 | 1435 ft | 189 kts | 329° |
| 2026-05-05 13:53 | 42.69417 | 2.91200 | 1165 ft | 186 kts | 328° |
| 2026-05-05 13:53 | 42.70504 | 2.90287 | 917 ft | 179 kts | 330° |
| 2026-05-05 13:53 | 42.71537 | 2.89426 | 631 ft | 167 kts | 330° |
| 2026-05-05 13:54 | 42.72459 | 2.88552 | 470 ft | 160 kts | 327° |
| 2026-05-05 13:54 | 42.73498 | 2.88007 | 319 ft | 171 kts | 347° |
| 2026-05-05 13:54 | 42.74687 | 2.87347 | 754 ft | 187 kts | 336° |
| 2026-05-05 13:54 | 42.75871 | 2.86556 | 1507 ft | 200 kts | 335° |
| 2026-05-05 13:55 | 42.77186 | 2.85794 | 2205 ft | 205 kts | 343° |
| 2026-05-05 13:55 | 42.78584 | 2.85744 | 3066 ft | 208 kts | 22° |
| 2026-05-05 13:55 | 42.79770 | 2.86964 | 3519 ft | 232 kts | 60° |
| 2026-05-05 13:55 | 42.80311 | 2.89161 | 3127 ft | 259 kts | 91° |
| 2026-05-05 13:56 | 42.79913 | 2.91549 | 2623 ft | 262 kts | 122° |
| 2026-05-05 13:56 | 42.78661 | 2.93214 | 2545 ft | 248 kts | 153° |
| 2026-05-05 13:56 | 42.77027 | 2.93603 | 2481 ft | 237 kts | 190° |
| 2026-05-05 13:56 | 42.75597 | 2.92646 | 2510 ft | 226 kts | 211° |
| 2026-05-05 13:57 | 42.74250 | 2.91571 | 2487 ft | 223 kts | 209° |
| 2026-05-05 13:57 | 42.72941 | 2.90459 | 2522 ft | 220 kts | 210° |
| 2026-05-05 13:57 | 42.71659 | 2.89337 | 2514 ft | 220 kts | 210° |
| 2026-05-05 13:57 | 42.70369 | 2.88205 | 2509 ft | 221 kts | 210° |
| 2026-05-05 13:58 | 42.69511 | 2.87456 | 2503 ft | 221 kts | 211° |
| 2026-05-05 13:58 | 42.68217 | 2.86334 | 2483 ft | 217 kts | 210° |
| 2026-05-05 13:58 | 42.66948 | 2.85367 | 2472 ft | 201 kts | 194° |
| 2026-05-05 13:58 | 42.65643 | 2.85278 | 2493 ft | 182 kts | 174° |
| 2026-05-05 13:59 | 42.63301 | 2.86144 | 2492 ft | 171 kts | 153° |
| 2026-05-05 13:59 | 42.62226 | 2.86879 | 2510 ft | 177 kts | 153° |
| 2026-05-05 14:00 | 42.59967 | 2.88480 | 2501 ft | 187 kts | 149° |
| 2026-05-05 14:00 | 42.59056 | 2.89703 | 2477 ft | 188 kts | 116° |
| 2026-05-05 14:00 | 42.58918 | 2.91451 | 2478 ft | 192 kts | 79° |
| 2026-05-05 14:00 | 42.59317 | 2.93178 | 2492 ft | 192 kts | 76° |
| 2026-05-05 14:01 | 42.59817 | 2.94859 | 2476 ft | 196 kts | 59° |
| 2026-05-05 14:01 | 42.60679 | 2.96293 | 2481 ft | 199 kts | 45° |
| 2026-05-05 14:01 | 42.61927 | 2.97088 | 2500 ft | 201 kts | 6° |
| 2026-05-05 14:01 | 42.63270 | 2.96648 | 2473 ft | 201 kts | 322° |
| 2026-05-05 14:02 | 42.64353 | 2.95461 | 2219 ft | 202 kts | 326° |
| 2026-05-05 14:02 | 42.65508 | 2.94465 | 2034 ft | 193 kts | 329° |
| 2026-05-05 14:02 | 42.66619 | 2.93543 | 1779 ft | 183 kts | 328° |
| 2026-05-05 14:02 | 42.67668 | 2.92665 | 1543 ft | 171 kts | 329° |
| 2026-05-05 14:03 | 42.68638 | 2.91851 | 1328 ft | 163 kts | 328° |
| 2026-05-05 14:03 | 42.69607 | 2.91040 | 1118 ft | 165 kts | 329° |
| 2026-05-05 14:03 | 42.70604 | 2.90199 | 930 ft | 167 kts | 330° |
| 2026-05-05 14:03 | 42.71581 | 2.89370 | 697 ft | 167 kts | 330° |
| 2026-05-05 14:04 | 42.72577 | 2.88529 | 430 ft | 170 kts | 331° |
| 2026-05-05 14:04 | 42.73601 | 2.87672 | 202 ft | 176 kts | 331° |
| 2026-05-05 14:04 | 42.74603 | 2.86895 | 152 ft | 148 kts | 324° |
| 2026-05-05 14:04 | 42.75311 | 2.86264 | 153 ft | 66 kts | 329° |
| 2026-05-05 14:05 | 42.75413 | 2.86057 | 150 ft | 26 kts | 230° |
| 2026-05-05 14:05 | 42.75260 | 2.86065 | 150 ft | 24 kts | 150° |
| 2026-05-05 14:05 | 42.75120 | 2.86178 | 149 ft | 23 kts | 148° |
| 2026-05-05 14:05 | 42.74987 | 2.86292 | 149 ft | 22 kts | 148° |
| 2026-05-05 14:06 | 42.74849 | 2.86381 | 149 ft | 22 kts | 147° |